sensor_id;sensor_type;location;lat;lon;timestamp;P1;durP1;ratioP1;P2;durP2;ratioP2
17927;SDS011;9089;58.396;15.544;2023-04-15T00:01:25;8.45;;;4.43;;
17927;SDS011;9089;58.396;15.544;2023-04-15T00:03:53;7.65;;;4.57;;
17927;SDS011;9089;58.396;15.544;2023-04-15T00:06:18;8.55;;;5.22;;
17927;SDS011;9089;58.396;15.544;2023-04-15T00:08:44;8.38;;;4.55;;
17927;SDS011;9089;58.396;15.544;2023-04-15T00:11:10;10.57;;;4.53;;
17927;SDS011;9089;58.396;15.544;2023-04-15T00:13:35;6.85;;;4.47;;
17927;SDS011;9089;58.396;15.544;2023-04-15T00:16:01;7.53;;;4.57;;
17927;SDS011;9089;58.396;15.544;2023-04-15T00:18:26;8.70;;;4.53;;
17927;SDS011;9089;58.396;15.544;2023-04-15T00:20:53;13.82;;;5.05;;
17927;SDS011;9089;58.396;15.544;2023-04-15T00:23:18;7.88;;;4.45;;
17927;SDS011;9089;58.396;15.544;2023-04-15T00:25:43;8.55;;;4.25;;
17927;SDS011;9089;58.396;15.544;2023-04-15T00:28:09;5.72;;;4.30;;
17927;SDS011;9089;58.396;15.544;2023-04-15T00:30:35;7.05;;;4.72;;
17927;SDS011;9089;58.396;15.544;2023-04-15T00:33:00;8.88;;;4.93;;
17927;SDS011;9089;58.396;15.544;2023-04-15T00:35:28;7.07;;;4.75;;
17927;SDS011;9089;58.396;15.544;2023-04-15T00:37:58;9.55;;;4.53;;
17927;SDS011;9089;58.396;15.544;2023-04-15T00:40:24;6.40;;;4.15;;
17927;SDS011;9089;58.396;15.544;2023-04-15T00:42:50;9.70;;;4.80;;
17927;SDS011;9089;58.396;15.544;2023-04-15T00:45:16;15.35;;;6.45;;
17927;SDS011;9089;58.396;15.544;2023-04-15T00:47:42;10.20;;;4.55;;
17927;SDS011;9089;58.396;15.544;2023-04-15T00:50:08;10.48;;;4.47;;
17927;SDS011;9089;58.396;15.544;2023-04-15T00:52:33;9.00;;;4.25;;
17927;SDS011;9089;58.396;15.544;2023-04-15T00:55:00;7.78;;;4.85;;
17927;SDS011;9089;58.396;15.544;2023-04-15T00:57:26;10.77;;;4.97;;
17927;SDS011;9089;58.396;15.544;2023-04-15T00:59:53;11.90;;;4.60;;
17927;SDS011;9089;58.396;15.544;2023-04-15T01:02:19;12.43;;;4.03;;
17927;SDS011;9089;58.396;15.544;2023-04-15T01:04:45;10.90;;;4.57;;
17927;SDS011;9089;58.396;15.544;2023-04-15T01:07:11;9.95;;;4.50;;
17927;SDS011;9089;58.396;15.544;2023-04-15T01:09:36;10.57;;;4.68;;
17927;SDS011;9089;58.396;15.544;2023-04-15T01:12:03;15.50;;;4.93;;
17927;SDS011;9089;58.396;15.544;2023-04-15T01:14:29;6.40;;;3.67;;
17927;SDS011;9089;58.396;15.544;2023-04-15T01:16:56;11.77;;;4.07;;
17927;SDS011;9089;58.396;15.544;2023-04-15T01:19:21;9.45;;;4.95;;
17927;SDS011;9089;58.396;15.544;2023-04-15T01:21:47;8.82;;;4.50;;
17927;SDS011;9089;58.396;15.544;2023-04-15T01:24:12;12.73;;;4.65;;
17927;SDS011;9089;58.396;15.544;2023-04-15T01:26:41;13.20;;;4.75;;
17927;SDS011;9089;58.396;15.544;2023-04-15T01:29:07;11.27;;;4.55;;
17927;SDS011;9089;58.396;15.544;2023-04-15T01:31:33;12.82;;;5.25;;
17927;SDS011;9089;58.396;15.544;2023-04-15T01:33:58;10.90;;;4.53;;
17927;SDS011;9089;58.396;15.544;2023-04-15T01:36:23;10.18;;;4.50;;
17927;SDS011;9089;58.396;15.544;2023-04-15T01:38:52;9.32;;;4.35;;
17927;SDS011;9089;58.396;15.544;2023-04-15T01:41:20;12.02;;;4.57;;
17927;SDS011;9089;58.396;15.544;2023-04-15T01:43:51;9.65;;;4.47;;
17927;SDS011;9089;58.396;15.544;2023-04-15T01:46:17;10.50;;;5.07;;
17927;SDS011;9089;58.396;15.544;2023-04-15T01:48:42;11.02;;;5.07;;
17927;SDS011;9089;58.396;15.544;2023-04-15T01:51:08;13.50;;;5.07;;
17927;SDS011;9089;58.396;15.544;2023-04-15T01:53:33;8.70;;;4.13;;
17927;SDS011;9089;58.396;15.544;2023-04-15T01:56:00;7.72;;;4.70;;
17927;SDS011;9089;58.396;15.544;2023-04-15T01:58:45;7.80;;;4.82;;
17927;SDS011;9089;58.396;15.544;2023-04-15T02:01:12;10.38;;;4.57;;
17927;SDS011;9089;58.396;15.544;2023-04-15T02:03:39;11.88;;;4.95;;
17927;SDS011;9089;58.396;15.544;2023-04-15T02:06:04;9.50;;;5.10;;
17927;SDS011;9089;58.396;15.544;2023-04-15T02:08:30;9.10;;;4.40;;
17927;SDS011;9089;58.396;15.544;2023-04-15T02:10:55;11.73;;;4.80;;
17927;SDS011;9089;58.396;15.544;2023-04-15T02:13:21;10.45;;;4.47;;
17927;SDS011;9089;58.396;15.544;2023-04-15T02:15:47;11.15;;;4.05;;
17927;SDS011;9089;58.396;15.544;2023-04-15T02:18:15;10.00;;;4.45;;
17927;SDS011;9089;58.396;15.544;2023-04-15T02:20:42;9.90;;;5.03;;
17927;SDS011;9089;58.396;15.544;2023-04-15T02:23:11;6.85;;;4.40;;
17927;SDS011;9089;58.396;15.544;2023-04-15T02:25:36;11.30;;;4.68;;
17927;SDS011;9089;58.396;15.544;2023-04-15T02:28:04;8.35;;;5.22;;
17927;SDS011;9089;58.396;15.544;2023-04-15T02:30:30;7.82;;;4.28;;
17927;SDS011;9089;58.396;15.544;2023-04-15T02:32:55;8.30;;;4.57;;
17927;SDS011;9089;58.396;15.544;2023-04-15T02:35:24;7.47;;;4.13;;
17927;SDS011;9089;58.396;15.544;2023-04-15T02:37:50;13.18;;;5.47;;
17927;SDS011;9089;58.396;15.544;2023-04-15T02:40:16;7.25;;;4.60;;
17927;SDS011;9089;58.396;15.544;2023-04-15T02:42:44;7.95;;;4.28;;
17927;SDS011;9089;58.396;15.544;2023-04-15T02:45:12;8.57;;;4.28;;
17927;SDS011;9089;58.396;15.544;2023-04-15T02:47:38;9.25;;;4.63;;
17927;SDS011;9089;58.396;15.544;2023-04-15T02:50:06;9.43;;;5.10;;
17927;SDS011;9089;58.396;15.544;2023-04-15T02:52:33;7.03;;;4.00;;
17927;SDS011;9089;58.396;15.544;2023-04-15T02:54:59;9.43;;;4.20;;
17927;SDS011;9089;58.396;15.544;2023-04-15T02:57:28;8.10;;;4.45;;
17927;SDS011;9089;58.396;15.544;2023-04-15T02:59:55;8.77;;;4.18;;
17927;SDS011;9089;58.396;15.544;2023-04-15T03:02:21;7.18;;;4.15;;
17927;SDS011;9089;58.396;15.544;2023-04-15T03:04:46;7.72;;;4.07;;
17927;SDS011;9089;58.396;15.544;2023-04-15T03:07:12;8.13;;;4.13;;
17927;SDS011;9089;58.396;15.544;2023-04-15T03:09:39;8.82;;;4.10;;
17927;SDS011;9089;58.396;15.544;2023-04-15T03:12:06;9.80;;;4.35;;
17927;SDS011;9089;58.396;15.544;2023-04-15T03:14:31;8.23;;;4.00;;
17927;SDS011;9089;58.396;15.544;2023-04-15T03:16:57;8.65;;;4.65;;
17927;SDS011;9089;58.396;15.544;2023-04-15T03:19:23;9.15;;;3.97;;
17927;SDS011;9089;58.396;15.544;2023-04-15T03:21:49;7.95;;;4.10;;
17927;SDS011;9089;58.396;15.544;2023-04-15T03:24:14;6.22;;;4.05;;
17927;SDS011;9089;58.396;15.544;2023-04-15T03:26:41;8.07;;;3.78;;
17927;SDS011;9089;58.396;15.544;2023-04-15T03:29:13;6.63;;;4.10;;
17927;SDS011;9089;58.396;15.544;2023-04-15T03:31:39;7.32;;;3.83;;
17927;SDS011;9089;58.396;15.544;2023-04-15T03:34:04;7.88;;;4.30;;
17927;SDS011;9089;58.396;15.544;2023-04-15T03:36:30;9.07;;;4.05;;
17927;SDS011;9089;58.396;15.544;2023-04-15T03:38:59;6.85;;;4.10;;
17927;SDS011;9089;58.396;15.544;2023-04-15T03:41:26;8.82;;;4.22;;
17927;SDS011;9089;58.396;15.544;2023-04-15T03:43:53;6.25;;;3.60;;
17927;SDS011;9089;58.396;15.544;2023-04-15T03:46:19;7.75;;;3.67;;
17927;SDS011;9089;58.396;15.544;2023-04-15T03:48:45;11.80;;;3.67;;
17927;SDS011;9089;58.396;15.544;2023-04-15T03:51:11;5.63;;;3.72;;
17927;SDS011;9089;58.396;15.544;2023-04-15T03:53:36;15.68;;;4.28;;
17927;SDS011;9089;58.396;15.544;2023-04-15T03:56:01;9.00;;;3.92;;
17927;SDS011;9089;58.396;15.544;2023-04-15T03:58:27;7.95;;;4.05;;
17927;SDS011;9089;58.396;15.544;2023-04-15T04:00:54;6.95;;;4.07;;
17927;SDS011;9089;58.396;15.544;2023-04-15T04:03:19;11.60;;;4.00;;
17927;SDS011;9089;58.396;15.544;2023-04-15T04:05:45;9.55;;;3.83;;
17927;SDS011;9089;58.396;15.544;2023-04-15T04:08:10;6.50;;;4.13;;
17927;SDS011;9089;58.396;15.544;2023-04-15T04:10:38;10.48;;;4.00;;
17927;SDS011;9089;58.396;15.544;2023-04-15T04:13:03;10.48;;;4.10;;
17927;SDS011;9089;58.396;15.544;2023-04-15T04:15:28;7.75;;;3.85;;
17927;SDS011;9089;58.396;15.544;2023-04-15T04:17:55;7.82;;;3.88;;
17927;SDS011;9089;58.396;15.544;2023-04-15T04:20:39;9.63;;;3.70;;
17927;SDS011;9089;58.396;15.544;2023-04-15T04:23:05;8.73;;;3.75;;
17927;SDS011;9089;58.396;15.544;2023-04-15T04:25:30;10.75;;;3.47;;
17927;SDS011;9089;58.396;15.544;2023-04-15T04:27:56;16.75;;;4.97;;
17927;SDS011;9089;58.396;15.544;2023-04-15T04:30:21;6.43;;;3.65;;
17927;SDS011;9089;58.396;15.544;2023-04-15T04:32:48;9.27;;;3.60;;
17927;SDS011;9089;58.396;15.544;2023-04-15T04:35:15;8.45;;;3.70;;
17927;SDS011;9089;58.396;15.544;2023-04-15T04:37:40;9.18;;;4.22;;
17927;SDS011;9089;58.396;15.544;2023-04-15T04:40:06;10.77;;;4.30;;
17927;SDS011;9089;58.396;15.544;2023-04-15T04:42:32;6.25;;;4.38;;
17927;SDS011;9089;58.396;15.544;2023-04-15T04:44:57;7.25;;;3.80;;
17927;SDS011;9089;58.396;15.544;2023-04-15T04:47:23;7.82;;;3.30;;
17927;SDS011;9089;58.396;15.544;2023-04-15T04:49:48;8.07;;;4.20;;
17927;SDS011;9089;58.396;15.544;2023-04-15T04:52:15;10.25;;;3.88;;
17927;SDS011;9089;58.396;15.544;2023-04-15T04:54:40;11.80;;;3.53;;
17927;SDS011;9089;58.396;15.544;2023-04-15T04:57:06;7.53;;;3.58;;
17927;SDS011;9089;58.396;15.544;2023-04-15T04:59:32;5.78;;;3.47;;
17927;SDS011;9089;58.396;15.544;2023-04-15T05:01:57;7.72;;;3.50;;
17927;SDS011;9089;58.396;15.544;2023-04-15T05:04:23;9.68;;;3.90;;
17927;SDS011;9089;58.396;15.544;2023-04-15T05:06:48;8.40;;;3.40;;
17927;SDS011;9089;58.396;15.544;2023-04-15T05:09:15;7.40;;;3.70;;
17927;SDS011;9089;58.396;15.544;2023-04-15T05:11:40;6.43;;;3.50;;
17927;SDS011;9089;58.396;15.544;2023-04-15T05:14:06;7.78;;;3.63;;
17927;SDS011;9089;58.396;15.544;2023-04-15T05:16:31;11.45;;;4.00;;
17927;SDS011;9089;58.396;15.544;2023-04-15T05:18:57;6.38;;;3.42;;
17927;SDS011;9089;58.396;15.544;2023-04-15T05:21:22;11.18;;;3.90;;
17927;SDS011;9089;58.396;15.544;2023-04-15T05:23:48;9.52;;;4.05;;
17927;SDS011;9089;58.396;15.544;2023-04-15T05:26:14;7.15;;;3.70;;
17927;SDS011;9089;58.396;15.544;2023-04-15T05:28:40;8.18;;;3.33;;
17927;SDS011;9089;58.396;15.544;2023-04-15T05:31:05;6.05;;;3.35;;
17927;SDS011;9089;58.396;15.544;2023-04-15T05:33:31;5.50;;;3.53;;
17927;SDS011;9089;58.396;15.544;2023-04-15T05:35:56;9.77;;;3.90;;
17927;SDS011;9089;58.396;15.544;2023-04-15T05:38:22;7.95;;;3.85;;
17927;SDS011;9089;58.396;15.544;2023-04-15T05:40:47;6.07;;;3.63;;
17927;SDS011;9089;58.396;15.544;2023-04-15T05:43:14;6.55;;;3.17;;
17927;SDS011;9089;58.396;15.544;2023-04-15T05:45:39;5.43;;;3.50;;
17927;SDS011;9089;58.396;15.544;2023-04-15T05:48:05;7.20;;;3.47;;
17927;SDS011;9089;58.396;15.544;2023-04-15T05:50:31;4.50;;;3.20;;
17927;SDS011;9089;58.396;15.544;2023-04-15T05:52:56;7.18;;;3.88;;
17927;SDS011;9089;58.396;15.544;2023-04-15T05:55:22;7.75;;;3.80;;
17927;SDS011;9089;58.396;15.544;2023-04-15T05:57:47;8.80;;;3.33;;
17927;SDS011;9089;58.396;15.544;2023-04-15T06:00:14;5.68;;;3.20;;
17927;SDS011;9089;58.396;15.544;2023-04-15T06:02:40;6.85;;;3.22;;
17927;SDS011;9089;58.396;15.544;2023-04-15T06:05:06;5.95;;;3.15;;
17927;SDS011;9089;58.396;15.544;2023-04-15T06:07:35;8.20;;;3.33;;
17927;SDS011;9089;58.396;15.544;2023-04-15T06:10:01;7.38;;;3.92;;
17927;SDS011;9089;58.396;15.544;2023-04-15T06:12:27;7.50;;;3.72;;
17927;SDS011;9089;58.396;15.544;2023-04-15T06:14:52;5.50;;;3.63;;
17927;SDS011;9089;58.396;15.544;2023-04-15T06:17:19;5.05;;;2.90;;
17927;SDS011;9089;58.396;15.544;2023-04-15T06:19:45;9.02;;;3.40;;
17927;SDS011;9089;58.396;15.544;2023-04-15T06:22:10;9.55;;;3.80;;
17927;SDS011;9089;58.396;15.544;2023-04-15T06:24:35;7.03;;;3.15;;
17927;SDS011;9089;58.396;15.544;2023-04-15T06:27:01;6.53;;;3.58;;
17927;SDS011;9089;58.396;15.544;2023-04-15T06:29:27;5.65;;;3.47;;
17927;SDS011;9089;58.396;15.544;2023-04-15T06:31:52;6.40;;;3.53;;
17927;SDS011;9089;58.396;15.544;2023-04-15T06:34:19;5.53;;;3.45;;
17927;SDS011;9089;58.396;15.544;2023-04-15T06:36:45;4.63;;;3.28;;
17927;SDS011;9089;58.396;15.544;2023-04-15T06:39:10;5.43;;;3.55;;
17927;SDS011;9089;58.396;15.544;2023-04-15T06:41:36;6.25;;;3.35;;
17927;SDS011;9089;58.396;15.544;2023-04-15T06:44:01;5.43;;;2.60;;
17927;SDS011;9089;58.396;15.544;2023-04-15T06:46:27;3.58;;;3.10;;
17927;SDS011;9089;58.396;15.544;2023-04-15T06:48:52;5.45;;;3.10;;
17927;SDS011;9089;58.396;15.544;2023-04-15T06:51:19;5.90;;;3.28;;
17927;SDS011;9089;58.396;15.544;2023-04-15T06:53:44;5.13;;;3.00;;
17927;SDS011;9089;58.396;15.544;2023-04-15T06:56:10;6.00;;;3.30;;
17927;SDS011;9089;58.396;15.544;2023-04-15T06:58:35;7.75;;;3.33;;
17927;SDS011;9089;58.396;15.544;2023-04-15T07:01:01;5.10;;;3.75;;
17927;SDS011;9089;58.396;15.544;2023-04-15T07:03:26;7.32;;;3.20;;
17927;SDS011;9089;58.396;15.544;2023-04-15T07:05:52;9.70;;;3.75;;
17927;SDS011;9089;58.396;15.544;2023-04-15T07:08:19;6.07;;;3.10;;
17927;SDS011;9089;58.396;15.544;2023-04-15T07:10:44;7.07;;;3.60;;
17927;SDS011;9089;58.396;15.544;2023-04-15T07:13:10;7.00;;;3.30;;
17927;SDS011;9089;58.396;15.544;2023-04-15T07:15:35;5.80;;;3.13;;
17927;SDS011;9089;58.396;15.544;2023-04-15T07:18:01;5.50;;;3.30;;
17927;SDS011;9089;58.396;15.544;2023-04-15T07:20:26;4.55;;;3.05;;
17927;SDS011;9089;58.396;15.544;2023-04-15T07:22:52;8.55;;;3.47;;
17927;SDS011;9089;58.396;15.544;2023-04-15T07:25:19;5.35;;;3.25;;
17927;SDS011;9089;58.396;15.544;2023-04-15T07:27:45;5.93;;;2.95;;
17927;SDS011;9089;58.396;15.544;2023-04-15T07:30:10;5.53;;;3.20;;
17927;SDS011;9089;58.396;15.544;2023-04-15T07:32:36;4.68;;;3.05;;
17927;SDS011;9089;58.396;15.544;2023-04-15T07:35:02;5.63;;;3.13;;
17927;SDS011;9089;58.396;15.544;2023-04-15T07:37:27;4.90;;;2.70;;
17927;SDS011;9089;58.396;15.544;2023-04-15T07:39:53;6.93;;;3.30;;
17927;SDS011;9089;58.396;15.544;2023-04-15T07:42:20;5.72;;;3.25;;
17927;SDS011;9089;58.396;15.544;2023-04-15T07:44:46;11.57;;;3.38;;
17927;SDS011;9089;58.396;15.544;2023-04-15T07:47:11;7.07;;;3.70;;
17927;SDS011;9089;58.396;15.544;2023-04-15T07:49:37;6.80;;;2.85;;
17927;SDS011;9089;58.396;15.544;2023-04-15T07:52:02;5.63;;;3.17;;
17927;SDS011;9089;58.396;15.544;2023-04-15T07:54:28;8.50;;;3.60;;
17927;SDS011;9089;58.396;15.544;2023-04-15T07:56:53;5.10;;;2.58;;
17927;SDS011;9089;58.396;15.544;2023-04-15T07:59:21;5.68;;;3.15;;
17927;SDS011;9089;58.396;15.544;2023-04-15T08:01:47;6.22;;;2.88;;
17927;SDS011;9089;58.396;15.544;2023-04-15T08:04:12;6.28;;;3.42;;
17927;SDS011;9089;58.396;15.544;2023-04-15T08:06:38;4.07;;;3.35;;
17927;SDS011;9089;58.396;15.544;2023-04-15T08:09:04;5.60;;;2.80;;
17927;SDS011;9089;58.396;15.544;2023-04-15T08:11:29;6.03;;;3.42;;
17927;SDS011;9089;58.396;15.544;2023-04-15T08:13:55;6.97;;;3.55;;
17927;SDS011;9089;58.396;15.544;2023-04-15T08:16:23;4.25;;;3.20;;
17927;SDS011;9089;58.396;15.544;2023-04-15T08:18:49;5.25;;;3.47;;
17927;SDS011;9089;58.396;15.544;2023-04-15T08:21:15;6.68;;;3.40;;
17927;SDS011;9089;58.396;15.544;2023-04-15T08:23:40;6.00;;;3.17;;
17927;SDS011;9089;58.396;15.544;2023-04-15T08:26:07;7.28;;;3.60;;
17927;SDS011;9089;58.396;15.544;2023-04-15T08:28:32;3.72;;;2.50;;
17927;SDS011;9089;58.396;15.544;2023-04-15T08:30:58;8.43;;;3.25;;
17927;SDS011;9089;58.396;15.544;2023-04-15T08:33:25;5.82;;;3.55;;
17927;SDS011;9089;58.396;15.544;2023-04-15T08:35:50;9.40;;;3.67;;
17927;SDS011;9089;58.396;15.544;2023-04-15T08:38:18;8.73;;;3.55;;
17927;SDS011;9089;58.396;15.544;2023-04-15T08:40:44;6.38;;;3.50;;
17927;SDS011;9089;58.396;15.544;2023-04-15T08:43:10;5.85;;;3.15;;
17927;SDS011;9089;58.396;15.544;2023-04-15T08:45:37;6.43;;;3.45;;
17927;SDS011;9089;58.396;15.544;2023-04-15T08:48:03;5.47;;;3.40;;
17927;SDS011;9089;58.396;15.544;2023-04-15T08:50:30;5.93;;;3.60;;
17927;SDS011;9089;58.396;15.544;2023-04-15T08:52:57;7.13;;;3.90;;
17927;SDS011;9089;58.396;15.544;2023-04-15T08:55:22;7.65;;;3.85;;
17927;SDS011;9089;58.396;15.544;2023-04-15T08:57:49;8.35;;;4.30;;
17927;SDS011;9089;58.396;15.544;2023-04-15T09:00:15;4.63;;;3.38;;
17927;SDS011;9089;58.396;15.544;2023-04-15T09:02:41;7.28;;;3.30;;
17927;SDS011;9089;58.396;15.544;2023-04-15T09:05:07;9.73;;;3.88;;
17927;SDS011;9089;58.396;15.544;2023-04-15T09:07:34;5.80;;;3.60;;
17927;SDS011;9089;58.396;15.544;2023-04-15T09:10:01;6.50;;;3.45;;
17927;SDS011;9089;58.396;15.544;2023-04-15T09:12:27;8.32;;;3.78;;
17927;SDS011;9089;58.396;15.544;2023-04-15T09:14:52;4.55;;;3.03;;
17927;SDS011;9089;58.396;15.544;2023-04-15T09:17:18;4.57;;;3.30;;
17927;SDS011;9089;58.396;15.544;2023-04-15T09:19:45;5.10;;;3.30;;
17927;SDS011;9089;58.396;15.544;2023-04-15T09:22:11;5.93;;;3.38;;
17927;SDS011;9089;58.396;15.544;2023-04-15T09:24:38;3.78;;;2.95;;
17927;SDS011;9089;58.396;15.544;2023-04-15T09:27:05;3.95;;;3.22;;
17927;SDS011;9089;58.396;15.544;2023-04-15T09:29:30;5.93;;;3.33;;
17927;SDS011;9089;58.396;15.544;2023-04-15T09:31:57;8.63;;;3.35;;
17927;SDS011;9089;58.396;15.544;2023-04-15T09:34:34;6.60;;;3.50;;
17927;SDS011;9089;58.396;15.544;2023-04-15T09:36:59;6.88;;;3.55;;
17927;SDS011;9089;58.396;15.544;2023-04-15T09:39:28;3.17;;;2.75;;
17927;SDS011;9089;58.396;15.544;2023-04-15T09:42:10;5.57;;;2.83;;
17927;SDS011;9089;58.396;15.544;2023-04-15T09:44:35;5.32;;;3.00;;
17927;SDS011;9089;58.396;15.544;2023-04-15T09:47:01;5.38;;;3.00;;
17927;SDS011;9089;58.396;15.544;2023-04-15T09:49:27;4.55;;;3.13;;
17927;SDS011;9089;58.396;15.544;2023-04-15T09:51:56;4.53;;;3.20;;
17927;SDS011;9089;58.396;15.544;2023-04-15T09:54:22;5.75;;;3.50;;
17927;SDS011;9089;58.396;15.544;2023-04-15T09:56:48;6.78;;;3.08;;
17927;SDS011;9089;58.396;15.544;2023-04-15T09:59:15;6.15;;;3.13;;
17927;SDS011;9089;58.396;15.544;2023-04-15T10:01:41;3.28;;;2.92;;
17927;SDS011;9089;58.396;15.544;2023-04-15T10:04:06;8.13;;;3.30;;
17927;SDS011;9089;58.396;15.544;2023-04-15T10:06:33;4.25;;;3.42;;
17927;SDS011;9089;58.396;15.544;2023-04-15T10:08:58;3.60;;;3.13;;
17927;SDS011;9089;58.396;15.544;2023-04-15T10:11:25;3.33;;;2.80;;
17927;SDS011;9089;58.396;15.544;2023-04-15T10:13:52;4.15;;;2.55;;
17927;SDS011;9089;58.396;15.544;2023-04-15T10:16:20;4.90;;;3.00;;
17927;SDS011;9089;58.396;15.544;2023-04-15T10:18:46;3.95;;;3.10;;
17927;SDS011;9089;58.396;15.544;2023-04-15T10:21:12;9.25;;;3.13;;
17927;SDS011;9089;58.396;15.544;2023-04-15T10:23:42;4.03;;;2.70;;
17927;SDS011;9089;58.396;15.544;2023-04-15T10:26:08;5.25;;;2.70;;
17927;SDS011;9089;58.396;15.544;2023-04-15T10:28:34;7.93;;;2.40;;
17927;SDS011;9089;58.396;15.544;2023-04-15T10:30:59;4.00;;;2.40;;
17927;SDS011;9089;58.396;15.544;2023-04-15T10:33:27;5.47;;;2.80;;
17927;SDS011;9089;58.396;15.544;2023-04-15T10:35:53;3.33;;;2.53;;
17927;SDS011;9089;58.396;15.544;2023-04-15T10:38:32;4.07;;;2.80;;
17927;SDS011;9089;58.396;15.544;2023-04-15T10:41:10;3.30;;;2.60;;
17927;SDS011;9089;58.396;15.544;2023-04-15T10:43:36;2.97;;;2.65;;
17927;SDS011;9089;58.396;15.544;2023-04-15T10:46:03;3.60;;;2.40;;
17927;SDS011;9089;58.396;15.544;2023-04-15T10:48:30;2.85;;;2.38;;
17927;SDS011;9089;58.396;15.544;2023-04-15T10:50:56;3.30;;;2.75;;
17927;SDS011;9089;58.396;15.544;2023-04-15T10:53:25;5.25;;;2.65;;
17927;SDS011;9089;58.396;15.544;2023-04-15T10:55:51;3.38;;;2.38;;
17927;SDS011;9089;58.396;15.544;2023-04-15T10:58:16;6.05;;;2.67;;
17927;SDS011;9089;58.396;15.544;2023-04-15T11:00:41;4.13;;;2.40;;
17927;SDS011;9089;58.396;15.544;2023-04-15T11:03:14;3.40;;;2.55;;
17927;SDS011;9089;58.396;15.544;2023-04-15T11:05:50;3.67;;;2.72;;
17927;SDS011;9089;58.396;15.544;2023-04-15T11:08:16;6.28;;;2.70;;
17927;SDS011;9089;58.396;15.544;2023-04-15T11:10:50;4.32;;;2.42;;
17927;SDS011;9089;58.396;15.544;2023-04-15T11:13:17;5.03;;;2.63;;
17927;SDS011;9089;58.396;15.544;2023-04-15T11:15:46;7.75;;;2.92;;
17927;SDS011;9089;58.396;15.544;2023-04-15T11:18:12;4.68;;;2.65;;
17927;SDS011;9089;58.396;15.544;2023-04-15T11:20:38;4.75;;;2.80;;
17927;SDS011;9089;58.396;15.544;2023-04-15T11:23:05;7.18;;;2.63;;
17927;SDS011;9089;58.396;15.544;2023-04-15T11:25:31;4.55;;;2.70;;
17927;SDS011;9089;58.396;15.544;2023-04-15T11:27:58;7.07;;;2.60;;
17927;SDS011;9089;58.396;15.544;2023-04-15T11:30:25;3.47;;;2.70;;
17927;SDS011;9089;58.396;15.544;2023-04-15T11:32:52;3.60;;;2.75;;
17927;SDS011;9089;58.396;15.544;2023-04-15T11:35:18;4.40;;;2.63;;
17927;SDS011;9089;58.396;15.544;2023-04-15T11:37:43;5.00;;;3.03;;
17927;SDS011;9089;58.396;15.544;2023-04-15T11:40:11;6.38;;;2.72;;
17927;SDS011;9089;58.396;15.544;2023-04-15T11:42:36;4.28;;;3.20;;
17927;SDS011;9089;58.396;15.544;2023-04-15T11:45:05;5.07;;;2.85;;
17927;SDS011;9089;58.396;15.544;2023-04-15T11:47:31;4.57;;;2.95;;
17927;SDS011;9089;58.396;15.544;2023-04-15T11:49:57;4.88;;;3.15;;
17927;SDS011;9089;58.396;15.544;2023-04-15T11:52:56;4.28;;;2.60;;
17927;SDS011;9089;58.396;15.544;2023-04-15T11:55:23;3.28;;;2.85;;
17927;SDS011;9089;58.396;15.544;2023-04-15T11:57:49;5.88;;;3.25;;
17927;SDS011;9089;58.396;15.544;2023-04-15T12:00:15;4.20;;;2.80;;
17927;SDS011;9089;58.396;15.544;2023-04-15T12:02:42;2.78;;;2.35;;
17927;SDS011;9089;58.396;15.544;2023-04-15T12:05:08;4.05;;;2.67;;
17927;SDS011;9089;58.396;15.544;2023-04-15T12:07:42;4.13;;;2.88;;
17927;SDS011;9089;58.396;15.544;2023-04-15T12:10:24;3.15;;;2.60;;
17927;SDS011;9089;58.396;15.544;2023-04-15T12:12:51;5.43;;;3.22;;
17927;SDS011;9089;58.396;15.544;2023-04-15T12:15:16;7.22;;;3.70;;
17927;SDS011;9089;58.396;15.544;2023-04-15T12:17:42;5.85;;;3.20;;
17927;SDS011;9089;58.396;15.544;2023-04-15T12:20:26;3.20;;;2.90;;
17927;SDS011;9089;58.396;15.544;2023-04-15T12:22:51;3.03;;;2.50;;
17927;SDS011;9089;58.396;15.544;2023-04-15T12:25:17;6.22;;;3.00;;
17927;SDS011;9089;58.396;15.544;2023-04-15T12:27:50;4.47;;;3.20;;
17927;SDS011;9089;58.396;15.544;2023-04-15T12:30:16;3.17;;;2.88;;
17927;SDS011;9089;58.396;15.544;2023-04-15T12:32:41;5.32;;;2.85;;
17927;SDS011;9089;58.396;15.544;2023-04-15T12:35:08;3.15;;;2.63;;
17927;SDS011;9089;58.396;15.544;2023-04-15T12:37:33;5.75;;;3.22;;
17927;SDS011;9089;58.396;15.544;2023-04-15T12:39:59;4.88;;;3.05;;
17927;SDS011;9089;58.396;15.544;2023-04-15T12:42:24;4.38;;;2.78;;
17927;SDS011;9089;58.396;15.544;2023-04-15T12:45:10;2.65;;;2.45;;
17927;SDS011;9089;58.396;15.544;2023-04-15T12:47:35;3.78;;;2.85;;
17927;SDS011;9089;58.396;15.544;2023-04-15T12:50:01;6.00;;;3.00;;
17927;SDS011;9089;58.396;15.544;2023-04-15T12:52:26;6.57;;;3.50;;
17927;SDS011;9089;58.396;15.544;2023-04-15T12:54:52;4.32;;;2.97;;
17927;SDS011;9089;58.396;15.544;2023-04-15T12:57:17;4.85;;;3.17;;
17927;SDS011;9089;58.396;15.544;2023-04-15T12:59:42;4.20;;;2.80;;
17927;SDS011;9089;58.396;15.544;2023-04-15T13:02:09;7.93;;;3.53;;
17927;SDS011;9089;58.396;15.544;2023-04-15T13:04:35;4.72;;;2.72;;
17927;SDS011;9089;58.396;15.544;2023-04-15T13:07:00;3.67;;;2.58;;
17927;SDS011;9089;58.396;15.544;2023-04-15T13:09:26;4.32;;;3.28;;
17927;SDS011;9089;58.396;15.544;2023-04-15T13:11:51;6.03;;;3.38;;
17927;SDS011;9089;58.396;15.544;2023-04-15T13:14:18;5.47;;;2.85;;
17927;SDS011;9089;58.396;15.544;2023-04-15T13:16:44;3.17;;;2.88;;
17927;SDS011;9089;58.396;15.544;2023-04-15T13:19:11;4.70;;;2.65;;
17927;SDS011;9089;58.396;15.544;2023-04-15T13:21:55;2.85;;;2.55;;
17927;SDS011;9089;58.396;15.544;2023-04-15T13:24:20;3.17;;;2.53;;
17927;SDS011;9089;58.396;15.544;2023-04-15T13:26:45;6.25;;;3.13;;
17927;SDS011;9089;58.396;15.544;2023-04-15T13:29:11;4.32;;;3.20;;
17927;SDS011;9089;58.396;15.544;2023-04-15T13:31:38;4.63;;;3.20;;
17927;SDS011;9089;58.396;15.544;2023-04-15T13:34:03;5.82;;;2.88;;
17927;SDS011;9089;58.396;15.544;2023-04-15T13:36:30;4.90;;;2.85;;
17927;SDS011;9089;58.396;15.544;2023-04-15T13:38:55;2.90;;;2.70;;
17927;SDS011;9089;58.396;15.544;2023-04-15T13:41:21;5.25;;;3.22;;
17927;SDS011;9089;58.396;15.544;2023-04-15T13:43:47;3.42;;;2.92;;
17927;SDS011;9089;58.396;15.544;2023-04-15T13:46:12;3.45;;;3.10;;
17927;SDS011;9089;58.396;15.544;2023-04-15T13:48:38;5.63;;;3.10;;
17927;SDS011;9089;58.396;15.544;2023-04-15T13:51:03;3.90;;;3.35;;
17927;SDS011;9089;58.396;15.544;2023-04-15T13:53:30;4.93;;;3.25;;
17927;SDS011;9089;58.396;15.544;2023-04-15T13:55:55;7.22;;;3.53;;
17927;SDS011;9089;58.396;15.544;2023-04-15T13:58:21;6.35;;;3.40;;
17927;SDS011;9089;58.396;15.544;2023-04-15T14:00:46;3.95;;;2.95;;
17927;SDS011;9089;58.396;15.544;2023-04-15T14:03:11;4.75;;;3.40;;
17927;SDS011;9089;58.396;15.544;2023-04-15T14:05:37;5.38;;;3.15;;
17927;SDS011;9089;58.396;15.544;2023-04-15T14:08:02;5.55;;;3.50;;
17927;SDS011;9089;58.396;15.544;2023-04-15T14:10:29;7.22;;;3.85;;
17927;SDS011;9089;58.396;15.544;2023-04-15T14:12:55;4.90;;;3.67;;
17927;SDS011;9089;58.396;15.544;2023-04-15T14:15:20;4.75;;;3.22;;
17927;SDS011;9089;58.396;15.544;2023-04-15T14:17:45;4.18;;;3.35;;
17927;SDS011;9089;58.396;15.544;2023-04-15T14:20:11;3.90;;;3.47;;
17927;SDS011;9089;58.396;15.544;2023-04-15T14:22:36;6.40;;;3.20;;
17927;SDS011;9089;58.396;15.544;2023-04-15T14:25:02;5.07;;;3.30;;
17927;SDS011;9089;58.396;15.544;2023-04-15T14:27:29;6.65;;;3.88;;
17927;SDS011;9089;58.396;15.544;2023-04-15T14:29:55;6.03;;;3.65;;
17927;SDS011;9089;58.396;15.544;2023-04-15T14:32:23;4.80;;;3.75;;
17927;SDS011;9089;58.396;15.544;2023-04-15T14:34:48;8.75;;;4.00;;
17927;SDS011;9089;58.396;15.544;2023-04-15T14:37:14;8.15;;;3.55;;
17927;SDS011;9089;58.396;15.544;2023-04-15T14:39:39;8.15;;;3.70;;
17927;SDS011;9089;58.396;15.544;2023-04-15T14:42:05;4.65;;;3.45;;